Time;durP1;ratioP1;P1;durP2;ratioP2;P2;SDS_P1;SDS_P2;PMS_P1;PMS_P2;Temp;Humidity;BMP_temperature;BMP_pressure;BME280_temperature;BME280_humidity;BME280_pressure;Samples;Min_cycle;Max_cycle;Signal;HPM_P1;HPM_P2
2022/03/24 00:02:03;;;;;;;35.88;21.50;;;;;;;6.44;61.96;101786.66;10300889;28;20410;-74
2022/03/24 00:07:08;;;;;;;33.13;21.98;;;;;;;6.36;62.08;101791.63;10302252;28;20406;-72
2022/03/24 00:12:12;;;;;;;34.80;22.37;;;;;;;6.25;63.39;101785.25;10301189;28;20728;-72
2022/03/24 00:17:16;;;;;;;34.75;22.63;;;;;;;6.16;65.46;101791.84;10300385;28;20485;-73
2022/03/24 00:22:21;;;;;;;35.17;23.67;;;;;;;6.09;66.30;101793.34;10300026;28;20501;-74
2022/03/24 00:27:25;;;;;;;32.07;18.40;;;;;;;5.93;64.69;101788.56;10302358;28;20229;-73
2022/03/24 00:32:28;;;;;;;42.50;19.83;;;;;;;5.77;66.06;101792.31;10302298;28;20661;-72
2022/03/24 00:37:33;;;;;;;29.30;17.43;;;;;;;5.68;65.71;101786.84;10302183;28;20223;-71
2022/03/24 00:42:37;;;;;;;36.47;18.60;;;;;;;5.56;66.52;101790.72;10302044;28;20285;-72
2022/03/24 00:47:41;;;;;;;34.57;16.73;;;;;;;5.49;66.53;101794.81;10305238;28;20317;-73
2022/03/24 00:52:46;;;;;;;33.53;17.10;;;;;;;5.47;67.14;101790.44;10301660;28;20223;-71
2022/03/24 00:57:52;;;;;;;29.53;16.47;;;;;;;5.45;67.72;101797.25;10301635;28;20219;-72
2022/03/24 01:02:57;;;;;;;26.37;15.60;;;;;;;5.33;67.41;101789.97;10301215;28;20572;-69
2022/03/24 01:08:02;;;;;;;30.70;16.57;;;;;;;5.28;66.26;101791.50;10301253;28;20566;-72
2022/03/24 01:13:05;;;;;;;31.33;16.67;;;;;;;5.08;67.53;101787.38;10301019;28;20231;-73
2022/03/24 01:18:10;;;;;;;30.53;15.47;;;;;;;5.03;67.55;101790.59;10300988;28;20666;-76
2022/03/24 01:23:14;;;;;;;26.17;14.77;;;;;;;4.92;67.88;101781.66;10300789;28;20222;-72
2022/03/24 01:28:18;;;;;;;27.30;14.40;;;;;;;4.78;69.05;101788.00;10302274;28;20215;-69
2022/03/24 01:33:22;;;;;;;30.50;14.70;;;;;;;4.76;69.16;101782.81;10299834;28;20227;-71
2022/03/24 01:38:27;;;;;;;29.27;13.53;;;;;;;4.71;69.45;101786.91;10299901;28;20238;-73
2022/03/24 01:43:30;;;;;;;24.20;13.63;;;;;;;4.70;69.78;101783.47;10299693;28;20231;-68
2022/03/24 01:48:33;;;;;;;26.20;14.50;;;;;;;4.69;69.64;101776.53;10299515;28;20729;-70
2022/03/24 01:53:38;;;;;;;23.93;12.87;;;;;;;4.71;69.58;101781.78;10299869;28;20223;-71
2022/03/24 01:58:42;;;;;;;26.83;13.57;;;;;;;4.65;69.13;101779.84;10298739;28;20224;-69
2022/03/24 02:03:46;;;;;;;29.10;13.73;;;;;;;4.55;69.38;101775.19;10300164;28;20302;-71
2022/03/24 02:08:51;;;;;;;26.23;14.23;;;;;;;4.49;70.68;101772.38;10300043;28;20221;-70
2022/03/24 02:13:55;;;;;;;26.20;13.10;;;;;;;4.42;70.82;101777.22;10299375;28;20605;-72
2022/03/24 02:18:59;;;;;;;28.73;13.83;;;;;;;4.42;72.33;101779.81;10298304;28;20277;-72
2022/03/24 02:24:04;;;;;;;23.40;12.87;;;;;;;4.42;71.24;101782.38;10298618;28;20231;-71
2022/03/24 02:29:08;;;;;;;27.87;14.03;;;;;;;4.41;71.03;101778.06;10297980;28;20220;-73
2022/03/24 02:39:40;;;;;;;29.07;13.37;;;;;;;4.31;72.75;101783.69;10297777;28;20250;-71
2022/03/24 02:44:45;;;;;;;25.20;13.33;;;;;;;4.27;72.67;101786.94;10301300;28;20227;-70
2022/03/24 02:49:50;;;;;;;25.63;13.73;;;;;;;4.21;73.67;101787.56;10297423;28;20223;-70
2022/03/24 02:54:55;;;;;;;26.87;14.27;;;;;;;4.18;74.11;101795.19;10297235;28;20230;-69
2022/03/24 02:59:59;;;;;;;26.97;14.00;;;;;;;4.19;73.42;101793.50;10296985;28;20310;-71
2022/03/24 03:05:03;;;;;;;25.97;13.53;;;;;;;4.09;74.03;101792.25;10297073;28;20266;-71
2022/03/24 03:10:08;;;;;;;23.97;13.20;;;;;;;4.17;73.92;101789.97;10296617;28;20225;-69
2022/03/24 03:15:12;;;;;;;24.60;13.33;;;;;;;4.04;74.96;101798.91;10296266;28;20234;-68
2022/03/24 03:20:15;;;;;;;29.47;15.60;;;;;;;4.12;76.17;101797.53;10296526;28;20219;-69
2022/03/24 03:25:20;;;;;;;28.13;14.00;;;;;;;4.09;75.65;101802.53;10300649;28;20231;-70
2022/03/24 03:30:23;;;;;;;36.27;15.17;;;;;;;4.09;75.51;101799.09;10296235;28;20234;-72
2022/03/24 03:35:29;;;;;;;26.13;14.20;;;;;;;4.00;77.21;101806.44;10296049;28;20231;-68
2022/03/24 03:40:33;;;;;;;26.73;14.13;;;;;;;3.96;77.07;101812.25;10296306;28;20532;-69
2022/03/24 03:45:37;;;;;;;27.70;14.27;;;;;;;4.09;76.74;101811.94;10296203;28;20234;-72
2022/03/24 03:50:41;;;;;;;26.73;15.53;;;;;;;4.00;76.59;101815.03;10295837;28;20220;-70
2022/03/24 03:55:46;;;;;;;33.97;16.27;;;;;;;3.95;77.21;101810.53;10295713;28;20227;-70
2022/03/24 04:00:56;;;;;;;30.47;16.17;;;;;;;3.94;77.29;101819.91;10295714;28;20215;-70
2022/03/24 04:06:01;;;;;;;33.47;16.47;;;;;;;3.89;78.18;101823.97;10297608;28;20212;-70
2022/03/24 04:11:07;;;;;;;32.10;16.37;;;;;;;3.84;78.62;101825.50;10295812;28;20537;-71
2022/03/24 04:16:12;;;;;;;36.57;17.73;;;;;;;3.81;78.23;101825.38;10295438;28;20247;-69
2022/03/24 04:21:16;;;;;;;30.67;16.57;;;;;;;3.72;79.08;101827.56;10295435;28;20673;-71
2022/03/24 04:26:22;;;;;;;33.83;17.07;;;;;;;3.73;80.03;101826.75;10301683;28;20215;-71
2022/03/24 04:31:25;;;;;;;32.87;16.37;;;;;;;3.63;80.59;101829.75;10302631;28;20247;-72
2022/03/24 04:36:29;;;;;;;32.77;16.40;;;;;;;3.79;79.61;101834.72;10302636;28;20297;-73
2022/03/24 04:41:34;;;;;;;36.40;16.17;;;;;;;3.73;79.83;101831.88;10302205;28;20246;-73
2022/03/24 04:46:38;;;;;;;37.03;17.33;;;;;;;3.67;80.36;101836.78;10311003;28;20290;-72
2022/03/24 04:51:42;;;;;;;32.10;16.03;;;;;;;3.75;81.30;101826.81;10301845;28;20539;-72
2022/03/24 04:56:47;;;;;;;35.20;17.53;;;;;;;3.63;81.66;101823.72;10301403;28;20223;-70
2022/03/24 05:01:50;;;;;;;36.27;18.60;;;;;;;3.75;82.33;101829.38;10301361;28;20243;-69
2022/03/24 05:06:54;;;;;;;34.87;17.43;;;;;;;3.81;81.07;101829.63;10301148;28;20219;-74
2022/03/24 05:11:58;;;;;;;33.63;17.37;;;;;;;3.79;80.77;101836.38;10301194;28;20310;-69
2022/03/24 05:17:02;;;;;;;32.13;18.13;;;;;;;3.91;80.26;101831.75;10301622;28;20219;-74
2022/03/24 05:22:06;;;;;;;41.73;18.67;;;;;;;3.93;80.59;101837.81;10300381;28;20246;-73
2022/03/24 05:27:11;;;;;;;35.37;19.23;;;;;;;3.96;81.27;101835.38;10303548;28;20554;-71
2022/03/24 05:32:14;;;;;;;36.73;18.97;;;;;;;4.02;82.07;101843.34;10300075;28;20641;-70
2022/03/24 05:37:17;;;;;;;40.13;19.07;;;;;;;4.10;80.70;101834.22;10299319;28;20665;-69
2022/03/24 05:42:22;;;;;;;39.90;19.97;;;;;;;4.16;79.64;101837.91;10299740;28;20542;-68
2022/03/24 05:47:25;;;;;;;40.65;25.42;;;;;;;4.29;80.18;101832.44;10296936;28;20410;-72
2022/03/24 05:52:29;;;;;;;40.95;25.10;;;;;;;4.34;80.52;101843.78;10296824;28;20449;-71
2022/03/24 05:57:33;;;;;;;41.47;26.73;;;;;;;4.50;79.30;101843.53;10296630;28;20403;-72
2022/03/24 06:02:37;;;;;;;46.15;25.20;;;;;;;4.80;77.88;101842.94;10296305;28;20417;-71
2022/03/24 06:07:41;;;;;;;44.42;26.10;;;;;;;4.85;77.85;101846.56;10299721;28;20494;-73
2022/03/24 06:12:46;;;;;;;43.65;26.33;;;;;;;4.90;75.81;101840.75;10296083;28;20478;-73
2022/03/24 06:17:50;;;;;;;42.45;26.20;;;;;;;5.00;75.57;101839.38;10295937;28;20395;-73
2022/03/24 06:22:54;;;;;;;37.67;23.50;;;;;;;5.17;74.29;101849.47;10295750;28;20410;-73
2022/03/24 06:28:00;;;;;;;40.28;23.85;;;;;;;5.32;72.71;101850.00;10295320;28;20410;-71
2022/03/24 06:33:03;;;;;;;38.03;23.20;;;;;;;5.48;73.22;101849.72;10289262;28;20478;-73
2022/03/24 06:38:07;;;;;;;37.07;22.53;;;;;;;5.53;73.59;101848.16;10253435;29;20747;-71
2022/03/24 06:43:11;;;;;;;34.40;21.60;;;;;;;5.62;71.86;101853.63;10261561;28;20486;-72
2022/03/24 06:48:16;;;;;;;37.25;22.00;;;;;;;5.78;70.67;101850.72;10254521;28;20404;-71
2022/03/24 06:53:19;;;;;;;36.42;20.92;;;;;;;5.88;71.59;101851.94;9909121;28;10000975;-73
2022/03/24 06:58:25;;;;;;;34.85;20.52;;;;;;;6.00;69.82;101859.19;10251116;28;20412;-74
2022/03/24 07:03:28;;;;;;;34.63;20.42;;;;;;;6.08;68.54;101858.59;10251392;28;20422;-73
2022/03/24 07:08:32;;;;;;;35.90;19.97;;;;;;;6.23;66.92;101859.06;10251008;28;20396;-69
2022/03/24 07:13:37;;;;;;;35.30;20.30;;;;;;;6.35;66.44;101866.34;10254059;29;20420;-68
2022/03/24 07:18:47;;;;;;;30.75;19.27;;;;;;;6.44;67.61;101864.91;10259667;29;20891;-71
2022/03/24 07:23:50;;;;;;;28.38;18.20;;;;;;;6.57;65.90;101853.25;10251204;29;20404;-71
2022/03/24 07:28:54;;;;;;;27.60;16.50;;;;;;;6.69;66.34;101856.22;10250972;29;20872;-72
2022/03/24 07:33:58;;;;;;;24.20;13.88;;;;;;;6.83;64.92;101853.19;10251087;28;20415;-74
2022/03/24 07:39:02;;;;;;;26.63;16.05;;;;;;;6.95;65.69;101850.94;10250563;29;20406;-71
2022/03/24 07:44:07;;;;;;;28.43;15.57;;;;;;;7.04;65.31;101846.06;10250312;29;20829;-72
2022/03/24 07:49:13;;;;;;;17.80;10.75;;;;;;;7.20;64.03;101849.94;10254142;29;20762;-71
2022/03/24 07:54:16;;;;;;;23.95;14.82;;;;;;;7.32;63.57;101854.53;10250036;29;20412;-73
2022/03/24 07:59:21;;;;;;;28.23;16.65;;;;;;;7.24;63.04;101844.03;10253300;28;20391;-72
2022/03/24 08:04:24;;;;;;;25.47;15.60;;;;;;;7.47;63.14;101844.66;10257725;28;20507;-72
2022/03/24 08:09:32;;;;;;;24.75;14.10;;;;;;;7.52;61.50;101848.22;10257395;28;20396;-71
2022/03/24 08:14:37;;;;;;;27.55;15.32;;;;;;;7.61;61.62;101843.28;10257431;28;20447;-72
2022/03/24 08:19:41;;;;;;;27.70;17.20;;;;;;;7.89;60.38;101843.13;10257618;28;21090;-70
2022/03/24 08:24:44;;;;;;;27.38;14.40;;;;;;;7.99;59.27;101835.63;10260425;28;20491;-70
2022/03/24 08:29:49;;;;;;;25.23;12.93;;;;;;;8.14;58.14;101835.97;10257252;28;20404;-71
2022/03/24 08:34:52;;;;;;;21.92;11.85;;;;;;;8.32;57.10;101837.31;10256685;28;20890;-71
2022/03/24 08:39:55;;;;;;;20.33;11.52;;;;;;;8.45;56.71;101829.84;10256750;28;20454;-70
2022/03/24 08:45:00;;;;;;;24.40;12.88;;;;;;;8.62;56.35;101836.25;10256488;28;20415;-70
2022/03/24 08:50:04;;;;;;;23.58;11.35;;;;;;;8.73;55.70;101829.56;10255834;28;20847;-73
2022/03/24 08:55:11;;;;;;;20.95;10.10;;;;;;;9.01;54.70;101831.88;10259516;28;20886;-71
2022/03/24 09:00:17;;;;;;;19.73;9.87;;;;;;;9.31;53.58;101824.72;10256114;29;20406;-71
2022/03/24 09:05:21;;;;;;;16.35;9.93;;;;;;;9.41;52.73;101820.56;10255439;28;20416;-72
2022/03/24 09:10:24;;;;;;;16.10;9.38;;;;;;;9.60;52.20;101824.34;10255024;28;20396;-71
2022/03/24 09:15:29;;;;;;;14.70;8.65;;;;;;;9.86;51.15;101813.56;10255296;29;20422;-73
2022/03/24 09:20:33;;;;;;;15.50;9.30;;;;;;;10.12;51.02;101817.47;10254580;28;20404;-73
2022/03/24 09:25:38;;;;;;;17.73;9.75;;;;;;;10.57;50.35;101809.47;10256991;28;20506;-71
2022/03/24 09:30:42;;;;;;;14.68;9.15;;;;;;;11.48;49.61;101800.97;10255785;29;20491;-72
2022/03/24 09:35:46;;;;;;;15.98;8.13;;;;;;;12.29;47.60;101795.53;10254458;28;20412;-70
2022/03/24 09:40:51;;;;;;;13.48;7.70;;;;;;;12.91;44.93;101793.25;10254341;29;20396;-72
2022/03/24 09:45:56;;;;;;;14.73;7.93;;;;;;;13.31;43.38;101787.28;10254135;29;20428;-72
2022/03/24 09:51:00;;;;;;;14.20;7.27;;;;;;;13.83;42.41;101786.47;10253743;29;20401;-70
2022/03/24 09:56:04;;;;;;;79.95;61.03;;;;;;;14.55;41.48;101777.63;10214763;29;20414;-72
2022/03/24 10:01:09;;;;;;;12.33;6.87;;;;;;;14.79;38.58;101774.91;10221408;28;20981;-71
2022/03/24 10:06:12;;;;;;;12.38;6.70;;;;;;;14.95;39.27;101766.13;10253720;29;20727;-71
2022/03/24 10:11:15;;;;;;;9.68;5.30;;;;;;;15.80;37.00;101762.06;10254519;28;20850;-74
2022/03/24 10:16:41;;;;;;;13.77;6.47;;;;;;;16.13;35.97;101766.09;10252912;28;20420;-72
2022/03/24 10:21:48;;;;;;;16.20;4.53;;;;;;;16.75;35.78;101766.28;10255063;28;20212;-71
2022/03/24 10:27:00;;;;;;;10.10;3.63;;;;;;;17.34;34.85;101754.94;10255259;28;20234;-70
2022/03/24 10:32:11;;;;;;;10.20;4.10;;;;;;;17.78;33.70;101756.88;10257990;29;20204;-72
2022/03/24 10:37:17;;;;;;;8.37;4.30;;;;;;;17.79;33.36;101758.63;10254462;29;20251;-70
2022/03/24 10:42:23;;;;;;;15.93;4.37;;;;;;;18.11;33.76;101737.88;10254391;29;20210;-70
2022/03/24 10:47:39;;;;;;;9.95;4.40;;;;;;;18.55;31.87;101731.78;10254560;29;20279;-71
2022/03/24 10:52:42;;;;;;;13.55;4.78;;;;;;;19.16;32.28;101727.75;10256223;29;20196;-72
2022/03/24 10:57:46;;;;;;;12.50;4.70;;;;;;;19.29;31.95;101723.06;10257246;28;20266;-73
2022/03/24 11:02:51;;;;;;;9.77;4.70;;;;;;;19.34;32.01;101721.22;10258760;28;20232;-67
2022/03/24 11:07:55;;;;;;;10.50;5.30;;;;;;;19.81;31.33;101712.97;10256768;29;20206;-74
2022/03/24 11:13:01;;;;;;;14.53;5.20;;;;;;;20.35;30.04;101714.13;10256384;29;20198;-70
2022/03/24 11:18:07;;;;;;;9.15;4.72;;;;;;;20.46;30.28;101695.38;10256873;28;20228;-71
2022/03/24 11:23:34;;;;;;;10.50;4.65;;;;;;;21.20;29.90;101674.59;10255835;29;20196;-73
2022/03/24 11:28:39;;;;;;;23.05;5.68;;;;;;;21.04;29.55;101681.28;10257736;28;20216;-71
2022/03/24 11:33:46;;;;;;;11.77;5.05;;;;;;;21.26;29.70;101682.34;10263993;28;20192;-73
2022/03/24 11:38:52;;;;;;;10.32;4.95;;;;;;;22.01;29.88;101682.34;10264585;28;20258;-71
2022/03/24 11:43:58;;;;;;;10.48;5.35;;;;;;;22.17;28.33;101667.66;10264182;28;20192;-70
2022/03/24 11:49:21;;;;;;;9.93;4.72;;;;;;;22.19;28.42;101657.03;10264327;28;20652;-72
2022/03/24 11:54:30;;;;;;;12.27;5.70;;;;;;;23.19;27.80;101648.66;10263726;28;20235;-71
2022/03/24 11:59:33;;;;;;;11.88;5.28;;;;;;;22.52;27.29;101655.75;10267561;28;20357;-68
2022/03/24 12:04:51;;;;;;;12.30;5.43;;;;;;;22.81;27.09;101644.91;10271965;28;20572;-73
2022/03/24 12:10:01;;;;;;;14.18;5.55;;;;;;;23.52;26.42;101637.50;10263552;29;20230;-72
2022/03/24 12:15:10;;;;;;;;;;;;;;;24.04;26.04;101616.69;10263670;29;20043;-71
2022/03/24 12:20:22;;;;;;;;;;;;;;;24.32;25.58;101618.00;10264146;29;19932;-72
2022/03/24 12:25:33;;;;;;;;;;;;;;;24.57;25.06;101613.25;10263063;29;19922;-71
2022/03/24 12:30:43;;;;;;;;;;;;;;;26.01;23.67;101602.28;10265799;28;19933;-74
2022/03/24 12:35:50;;;;;;;;;;;;;;;24.50;25.91;101608.31;10262885;28;19923;-72
2022/03/24 12:41:08;;;;;;;;;;;;;;;23.91;26.59;101611.03;10262747;28;20324;-71
2022/03/24 12:46:18;;;;;;;;;;;;;;;22.92;27.79;101609.13;10261820;28;19922;-71
2022/03/24 12:51:24;;;;;;;;;;;;;;;23.64;26.45;101604.31;10262434;29;19923;-73
2022/03/24 12:56:28;;;;;;;;;;;;;;;25.21;24.55;101587.06;10261778;28;19923;-75
2022/03/24 13:01:31;;;;;;;;;;;;;;;24.42;25.92;101584.75;10264507;28;20271;-72
2022/03/24 13:06:36;;;;;;;;;;;;;;;23.03;26.92;101591.94;10261784;28;20264;-72
2022/03/24 13:11:48;;;;;;;;;;;;;;;23.09;26.65;101589.03;10261419;28;19933;-72
2022/03/24 13:17:04;;;;;;;;;;;;;;;22.41;28.22;101563.56;10261004;28;19980;-70
2022/03/24 13:22:14;;;;;;;;;;;;;;;21.84;28.85;101576.34;10261075;28;19923;-69
2022/03/24 13:27:18;;;;;;;;;;;;;;;21.84;28.46;101576.34;10262424;28;19922;-71
2022/03/24 13:32:25;;;;;;;;;;;;;;;21.39;29.61;101577.97;10262987;28;20016;-71
2022/03/24 13:37:33;;;;;;;;;;;;;;;21.32;29.71;101576.44;10260037;28;20256;-72
2022/03/24 13:42:37;;;;;;;;;;;;;;;20.95;30.67;101566.22;10260633;28;19997;-73
2022/03/24 13:47:41;;;;;;;;;;;;;;;20.52;30.29;101560.63;10259945;28;19956;-72
2022/03/24 13:52:46;;;;;;;;;;;;;;;20.46;31.21;101560.84;10260289;28;19931;-73
2022/03/24 13:57:56;;;;;;;9.93;5.10;;;;;;;19.94;31.00;101556.25;10259999;28;20038;-68
2022/03/24 14:03:02;;;;;;;13.98;5.20;;;;;;;19.67;30.83;101566.72;10259223;29;20240;-68
2022/03/24 14:08:08;;;;;;;8.98;5.10;;;;;;;19.31;31.57;101551.00;10258497;28;20351;-67
2022/03/24 14:13:17;;;;;;;10.45;4.72;;;;;;;19.40;31.71;101547.25;10258721;29;20216;-69
2022/03/24 14:18:22;;;;;;;12.06;6.34;;;;;;;19.36;31.80;101550.91;9916031;28;10001058;-65
2022/03/24 14:23:32;;;;;;;11.18;5.38;;;;;;;19.32;31.93;101543.97;10215320;29;20216;-65
2022/03/24 14:28:39;;;;;;;57.17;31.50;;;;;;;18.79;32.01;101552.38;10248145;29;20227;-64
2022/03/24 14:33:46;;;;;;;10.80;5.55;;;;;;;18.59;32.75;101544.94;10254498;28;20655;-65
2022/03/24 14:39:18;;;;;;;13.60;6.13;;;;;;;18.45;33.62;101538.31;10253944;29;20220;-64
2022/03/24 14:44:22;;;;;;;13.85;5.72;;;;;;;17.61;34.47;101543.59;10254166;29;20669;-65
2022/03/24 14:49:26;;;;;;;10.23;6.17;;;;;;;16.87;35.19;101535.34;10253908;28;20228;-64
2022/03/24 14:54:32;;;;;;;10.85;5.00;;;;;;;16.52;36.83;101528.91;10253701;28;20643;-63
2022/03/24 14:59:35;;;;;;;12.23;5.60;;;;;;;16.50;37.32;101533.34;10254179;29;20315;-70
2022/03/24 15:04:40;;;;;;;12.40;5.77;;;;;;;16.11;37.81;101532.13;10253344;28;20689;-68
2022/03/24 15:09:45;;;;;;;12.13;6.43;;;;;;;15.92;38.14;101536.75;10252972;28;20223;-70
2022/03/24 15:20:11;;;;;;;14.60;6.63;;;;;;;15.87;37.89;101520.25;10252525;29;20238;-71
2022/03/24 15:25:15;;;;;;;14.37;6.20;;;;;;;15.89;38.17;101528.06;10255911;28;20302;-71
2022/03/24 15:30:19;;;;;;;14.50;6.10;;;;;;;15.83;38.45;101522.91;10253118;28;20298;-71
2022/03/24 15:35:22;;;;;;;15.80;7.03;;;;;;;15.77;38.59;101523.84;10252920;29;20318;-70
2022/03/24 15:40:27;;;;;;;19.13;5.80;;;;;;;16.06;38.48;101524.34;10252577;29;20733;-72
2022/03/24 15:45:31;;;;;;;10.93;5.93;;;;;;;16.54;38.14;101528.00;10253110;28;20228;-74
2022/03/24 15:50:34;;;;;;;13.83;6.13;;;;;;;16.50;38.65;101525.47;10252811;28;20235;-74
2022/03/24 15:55:39;;;;;;;13.90;5.97;;;;;;;16.00;40.20;101528.78;10256132;29;20322;-72
2022/03/24 16:00:43;;;;;;;17.17;6.27;;;;;;;15.53;40.28;101534.59;10252376;28;20212;-74
2022/03/24 16:05:46;;;;;;;14.00;5.90;;;;;;;15.42;40.83;101540.84;10252533;29;20250;-69
2022/03/24 16:10:51;;;;;;;13.73;6.80;;;;;;;15.00;42.39;101539.50;10251867;28;20216;-66
2022/03/24 16:15:54;;;;;;;27.60;15.60;;;;;;;14.68;43.22;101541.53;10251172;28;20238;-72
2022/03/24 16:20:58;;;;;;;14.90;6.30;;;;;;;14.53;43.19;101534.66;10255094;28;20250;-71
2022/03/24 16:26:02;;;;;;;17.33;6.60;;;;;;;14.35;43.51;101523.47;10263440;29;20226;-73
2022/03/24 16:31:06;;;;;;;12.87;6.97;;;;;;;14.17;43.69;101534.88;10255044;29;20307;-73
2022/03/24 16:36:09;;;;;;;17.37;6.77;;;;;;;14.01;44.30;101541.06;10254589;29;20216;-71
2022/03/24 16:41:14;;;;;;;14.47;6.80;;;;;;;13.77;44.88;101554.22;10258486;29;20195;-73
2022/03/24 16:46:18;;;;;;;13.57;6.10;;;;;;;13.56;46.29;101549.94;10257621;29;20211;-72
2022/03/24 16:51:21;;;;;;;18.03;6.33;;;;;;;13.55;44.96;101552.56;10261743;28;20202;-73
2022/03/24 16:56:26;;;;;;;13.03;6.77;;;;;;;13.41;45.63;101556.94;10300869;28;20653;-73
2022/03/24 17:01:30;;;;;;;19.43;8.10;;;;;;;13.31;45.97;101555.22;10296382;28;20235;-71
2022/03/24 17:06:34;;;;;;;15.27;6.73;;;;;;;13.06;46.36;101562.22;10297798;28;20278;-71
2022/03/24 17:11:38;;;;;;;13.50;6.83;;;;;;;12.80;47.58;101567.41;10297028;28;20192;-74
2022/03/24 17:16:44;;;;;;;22.00;9.10;;;;;;;12.71;48.13;101570.03;10296730;28;20226;-73
2022/03/24 17:21:47;;;;;;;14.77;6.50;;;;;;;12.55;49.03;101575.19;10269756;28;20203;-69
2022/03/24 17:26:55;;;;;;;15.50;7.20;;;;;;;12.31;50.13;101575.16;10260242;28;20228;-73
2022/03/24 17:31:59;;;;;;;20.60;8.90;;;;;;;12.28;48.87;101581.25;10254569;28;20212;-74
2022/03/24 17:37:02;;;;;;;14.63;6.23;;;;;;;12.22;48.50;101570.78;10256848;28;20401;-72
2022/03/24 17:42:08;;;;;;;17.47;6.50;;;;;;;12.13;49.54;101575.97;10256580;28;20228;-72
2022/03/24 17:47:11;;;;;;;15.80;6.90;;;;;;;12.07;48.87;101586.38;10256409;28;20227;-70
2022/03/24 17:52:14;;;;;;;20.77;7.07;;;;;;;11.98;49.41;101583.72;10258421;28;20220;-75
2022/03/24 17:57:19;;;;;;;15.80;7.07;;;;;;;12.00;49.53;101588.94;10259826;28;20322;-71
2022/03/24 18:02:23;;;;;;;19.33;7.33;;;;;;;11.91;49.40;101587.16;10258620;28;20584;-72
2022/03/24 18:07:26;;;;;;;19.73;7.70;;;;;;;11.88;49.04;101591.47;10258403;28;20359;-73
2022/03/24 18:12:31;;;;;;;21.13;7.47;;;;;;;11.75;49.65;101587.97;10257611;29;20680;-72
2022/03/24 18:17:35;;;;;;;19.57;7.80;;;;;;;11.58;50.65;101594.75;10256592;29;20228;-74
2022/03/24 18:22:39;;;;;;;19.83;8.70;;;;;;;11.50;51.31;101599.06;10257437;29;20758;-75
2022/03/24 18:27:43;;;;;;;17.60;7.87;;;;;;;11.45;50.73;101601.66;10257772;29;20229;-72
2022/03/24 18:32:47;;;;;;;21.27;8.20;;;;;;;11.46;51.37;101607.69;10253563;28;20228;-72
2022/03/24 18:37:50;;;;;;;18.10;8.10;;;;;;;11.41;51.21;101606.78;10254958;28;20243;-70
2022/03/24 18:42:55;;;;;;;19.97;8.43;;;;;;;11.37;51.03;101608.50;10254251;28;20667;-72
2022/03/24 18:47:58;;;;;;;20.40;8.20;;;;;;;11.26;51.24;101611.91;10255766;28;20220;-68
2022/03/24 18:53:02;;;;;;;17.40;8.00;;;;;;;11.15;52.10;101610.94;10254818;28;20240;-72
2022/03/24 18:58:09;;;;;;;23.77;8.43;;;;;;;11.10;52.32;101616.09;10257119;28;20234;-73
2022/03/24 19:03:13;;;;;;;22.50;9.27;;;;;;;11.08;52.91;101616.97;9911825;28;10000155;-71
2022/03/24 19:08:17;;;;;;;22.77;8.47;;;;;;;10.98;52.74;101608.22;10253889;29;20694;-72
2022/03/24 19:13:23;;;;;;;22.40;8.77;;;;;;;10.85;53.60;101613.31;10253583;28;20718;-71
2022/03/24 19:18:26;;;;;;;24.10;9.47;;;;;;;10.91;52.91;101611.63;10253728;29;20242;-72
2022/03/24 19:23:29;;;;;;;21.77;9.23;;;;;;;10.78;54.45;101619.28;10253655;28;20598;-72
2022/03/24 19:28:34;;;;;;;22.40;9.93;;;;;;;10.72;53.18;101625.28;10256367;28;20224;-71
2022/03/24 19:33:38;;;;;;;23.83;8.97;;;;;;;10.68;54.34;101623.53;10253538;28;20295;-71
2022/03/24 19:38:41;;;;;;;19.83;9.23;;;;;;;10.57;55.36;101626.88;10252760;28;20232;-71
2022/03/24 19:43:47;;;;;;;16.13;8.20;;;;;;;10.48;55.53;101627.66;10253249;28;20247;-72
2022/03/24 19:48:51;;;;;;;20.40;9.43;;;;;;;10.48;55.16;101625.03;10253252;28;20219;-72
2022/03/24 19:53:54;;;;;;;20.17;9.17;;;;;;;10.42;54.93;101623.25;10253889;28;20232;-72
2022/03/24 19:58:59;;;;;;;22.97;9.43;;;;;;;10.46;54.71;101621.56;10262683;28;20216;-70
2022/03/24 20:04:03;;;;;;;22.20;10.00;;;;;;;10.45;54.86;101618.13;10260497;29;20240;-70
2022/03/24 20:09:07;;;;;;;24.80;10.60;;;;;;;10.33;55.24;101622.28;10260208;29;20248;-71
2022/03/24 20:14:11;;;;;;;19.60;9.17;;;;;;;10.25;55.07;101624.78;10260051;29;20299;-70
2022/03/24 20:19:15;;;;;;;22.97;9.43;;;;;;;10.21;55.00;101619.56;10259934;28;20230;-70
2022/03/24 20:24:19;;;;;;;24.17;10.10;;;;;;;10.13;55.28;101618.63;10259688;28;20250;-70
2022/03/24 20:29:24;;;;;;;27.73;11.20;;;;;;;10.06;55.83;101627.13;10263484;28;20310;-68
2022/03/24 20:34:28;;;;;;;28.87;12.13;;;;;;;10.01;55.47;101628.81;10260424;29;20220;-73
2022/03/24 20:39:31;;;;;;;25.20;10.90;;;;;;;9.96;55.70;101638.22;10259301;28;20242;-71
2022/03/24 20:44:36;;;;;;;26.23;11.20;;;;;;;9.87;56.10;101633.78;10259121;29;20561;-69
2022/03/24 20:49:40;;;;;;;23.87;11.23;;;;;;;9.74;56.17;101625.84;10258720;29;20295;-70
2022/03/24 20:54:43;;;;;;;25.93;11.27;;;;;;;9.67;55.77;101635.25;10259287;29;20240;-71
2022/03/24 20:59:48;;;;;;;26.20;10.20;;;;;;;9.60;56.59;101635.13;10261646;28;20228;-70
2022/03/24 21:04:54;;;;;;;21.27;11.60;;;;;;;9.46;56.21;101636.69;10264307;28;20569;-70
2022/03/24 21:09:57;;;;;;;18.70;8.97;;;;;;;9.49;56.00;101637.56;10258784;28;20232;-69
2022/03/24 21:15:02;;;;;;;17.80;8.40;;;;;;;9.46;55.33;101628.91;10257781;28;20234;-72
2022/03/24 21:20:06;;;;;;;19.23;8.87;;;;;;;9.42;55.20;101635.75;10257925;29;20231;-70
2022/03/24 21:25:10;;;;;;;20.53;8.33;;;;;;;9.27;55.63;101641.56;10258112;28;20317;-71
2022/03/24 21:30:15;;;;;;;16.03;8.37;;;;;;;9.18;55.91;101641.41;10257274;29;20231;-72
2022/03/24 21:35:19;;;;;;;19.07;8.77;;;;;;;9.13;56.09;101645.66;10261979;29;20193;-71
2022/03/24 21:40:23;;;;;;;19.77;9.00;;;;;;;9.10;56.48;101648.19;10259836;28;20219;-71
2022/03/24 21:45:29;;;;;;;20.40;9.73;;;;;;;9.01;57.59;101652.34;10256846;28;20198;-71
2022/03/24 21:50:33;;;;;;;21.40;10.60;;;;;;;8.90;58.98;101652.19;10257460;28;20599;-71
2022/03/24 21:55:39;;;;;;;23.67;11.10;;;;;;;8.82;58.51;101638.22;10257156;28;20232;-74
2022/03/24 22:00:45;;;;;;;24.10;11.47;;;;;;;8.74;59.43;101639.81;10256010;28;20212;-72
2022/03/24 22:05:48;;;;;;;24.70;11.23;;;;;;;8.62;59.32;101631.81;10259261;29;20228;-72
2022/03/24 22:10:52;;;;;;;22.10;11.37;;;;;;;8.60;60.09;101643.84;10258114;29;20203;-74
2022/03/24 22:15:58;;;;;;;23.40;11.40;;;;;;;8.58;60.20;101629.13;10256656;28;20284;-71
2022/03/24 22:21:01;;;;;;;23.43;11.37;;;;;;;8.43;59.71;101640.09;10256044;29;20558;-72
2022/03/24 22:26:05;;;;;;;23.87;10.70;;;;;;;8.42;60.47;101633.16;10255791;28;20677;-72
2022/03/24 22:31:10;;;;;;;26.53;13.23;;;;;;;8.37;59.09;101636.53;10257831;29;20291;-70
2022/03/24 22:36:14;;;;;;;23.53;10.97;;;;;;;8.26;59.95;101641.47;10263650;29;20246;-70
2022/03/24 22:41:25;;;;;;;23.33;11.37;;;;;;;8.23;59.88;101633.63;10269893;29;20216;-71
2022/03/24 22:46:29;;;;;;;27.90;11.03;;;;;;;8.13;60.28;101639.44;10260772;29;20538;-71
2022/03/24 22:51:34;;;;;;;22.40;11.47;;;;;;;8.02;60.31;101634.03;10262682;28;20220;-71
2022/03/24 22:56:38;;;;;;;24.33;11.57;;;;;;;7.97;61.92;101642.56;10261992;29;20196;-72
2022/03/24 23:01:43;;;;;;;23.00;12.07;;;;;;;8.06;61.06;101637.56;10258345;28;20240;-70
2022/03/24 23:06:49;;;;;;;30.43;12.53;;;;;;;7.94;60.00;101642.47;10262639;29;20565;-71
2022/03/24 23:12:04;;;;;;;24.03;12.23;;;;;;;7.92;61.67;101641.59;10269514;29;20223;-69
2022/03/24 23:17:12;;;;;;;22.73;11.60;;;;;;;7.90;62.55;101640.69;10261515;29;20192;-70
2022/03/24 23:22:16;;;;;;;24.07;12.20;;;;;;;7.78;63.00;101641.28;10263846;29;20231;-75
2022/03/24 23:27:20;;;;;;;20.70;11.47;;;;;;;7.68;62.62;101641.09;10262649;28;20274;-72